Manquin, Virginia
Current Conditions -  °F | °C
As of 5:55 PM on Monday 24 Nov 2014 (Local Time) from KW96 Reporting Station
Scattered Clouds Scattered Clouds  
Wind Chill: 69°   Ceiling: Unl
Heat Index: 69°   Visibility: 10mi
Dew Point: 61°   Wind: 7mph
Humidity: 76%   Direction: 190°S
Pressure: 29.72"   Gusts: NA
Location:  37.71°N, 77.15°W
Report Text: KW96 242255Z AUTO 19006KT 10SM SCT110 21/16 A2972 RMK AO1 T02050162
Loading
Personal Weather Stations






























Interactive Weather Map New forecast layout! Learn more

10-Day Weather Forecast

Advertisements
Track Severe Weather on mobile